sensor_id;sensor_type;location;lat;lon;timestamp;P1;durP1;ratioP1;P2;durP2;ratioP2
15876;SDS011;8037;51.666;7.834;2023-11-19T00:01:41;0.63;;;0.63;;
15876;SDS011;8037;51.666;7.834;2023-11-19T00:04:07;0.70;;;0.70;;
15876;SDS011;8037;51.666;7.834;2023-11-19T00:06:33;1.10;;;0.90;;
15876;SDS011;8037;51.666;7.834;2023-11-19T00:08:59;1.20;;;0.73;;
15876;SDS011;8037;51.666;7.834;2023-11-19T00:11:25;0.67;;;0.67;;
15876;SDS011;8037;51.666;7.834;2023-11-19T00:13:56;4.13;;;0.80;;
15876;SDS011;8037;51.666;7.834;2023-11-19T00:16:22;1.10;;;1.00;;
15876;SDS011;8037;51.666;7.834;2023-11-19T00:18:48;1.60;;;1.20;;
15876;SDS011;8037;51.666;7.834;2023-11-19T00:21:14;1.20;;;0.90;;
15876;SDS011;8037;51.666;7.834;2023-11-19T00:23:41;0.50;;;0.50;;
15876;SDS011;8037;51.666;7.834;2023-11-19T00:26:07;1.37;;;1.27;;
15876;SDS011;8037;51.666;7.834;2023-11-19T00:28:33;0.63;;;0.63;;
15876;SDS011;8037;51.666;7.834;2023-11-19T00:30:59;0.40;;;0.40;;
15876;SDS011;8037;51.666;7.834;2023-11-19T00:33:25;0.50;;;0.50;;
15876;SDS011;8037;51.666;7.834;2023-11-19T00:35:51;0.50;;;0.50;;
15876;SDS011;8037;51.666;7.834;2023-11-19T00:38:17;0.70;;;0.60;;
15876;SDS011;8037;51.666;7.834;2023-11-19T00:40:43;0.50;;;0.40;;
15876;SDS011;8037;51.666;7.834;2023-11-19T00:43:09;0.40;;;0.40;;
15876;SDS011;8037;51.666;7.834;2023-11-19T00:45:35;0.40;;;0.40;;
15876;SDS011;8037;51.666;7.834;2023-11-19T00:48:01;1.37;;;0.80;;
15876;SDS011;8037;51.666;7.834;2023-11-19T00:50:27;0.50;;;0.50;;
15876;SDS011;8037;51.666;7.834;2023-11-19T00:52:54;0.47;;;0.47;;
15876;SDS011;8037;51.666;7.834;2023-11-19T00:55:20;0.40;;;0.33;;
15876;SDS011;8037;51.666;7.834;2023-11-19T00:57:46;0.80;;;0.47;;
15876;SDS011;8037;51.666;7.834;2023-11-19T01:00:12;0.37;;;0.37;;
15876;SDS011;8037;51.666;7.834;2023-11-19T01:02:47;0.40;;;0.40;;
15876;SDS011;8037;51.666;7.834;2023-11-19T01:05:14;0.43;;;0.40;;
15876;SDS011;8037;51.666;7.834;2023-11-19T01:07:40;0.40;;;0.30;;
15876;SDS011;8037;51.666;7.834;2023-11-19T01:10:06;0.83;;;0.73;;
15876;SDS011;8037;51.666;7.834;2023-11-19T01:12:33;0.50;;;0.40;;
15876;SDS011;8037;51.666;7.834;2023-11-19T01:14:59;0.40;;;0.40;;
15876;SDS011;8037;51.666;7.834;2023-11-19T01:17:26;3.80;;;0.67;;
15876;SDS011;8037;51.666;7.834;2023-11-19T01:19:52;0.60;;;0.50;;
15876;SDS011;8037;51.666;7.834;2023-11-19T01:22:17;0.40;;;0.37;;
15876;SDS011;8037;51.666;7.834;2023-11-19T01:24:44;0.90;;;0.73;;
15876;SDS011;8037;51.666;7.834;2023-11-19T01:27:09;0.40;;;0.40;;
15876;SDS011;8037;51.666;7.834;2023-11-19T01:29:35;0.47;;;0.40;;
15876;SDS011;8037;51.666;7.834;2023-11-19T01:32:03;0.40;;;0.40;;
15876;SDS011;8037;51.666;7.834;2023-11-19T01:34:29;0.53;;;0.53;;
15876;SDS011;8037;51.666;7.834;2023-11-19T01:36:55;0.40;;;0.37;;
15876;SDS011;8037;51.666;7.834;2023-11-19T01:39:21;1.27;;;0.47;;
15876;SDS011;8037;51.666;7.834;2023-11-19T01:41:47;0.60;;;0.60;;
15876;SDS011;8037;51.666;7.834;2023-11-19T01:44:13;0.60;;;0.50;;
15876;SDS011;8037;51.666;7.834;2023-11-19T01:46:43;0.40;;;0.40;;
15876;SDS011;8037;51.666;7.834;2023-11-19T01:49:12;1.07;;;0.80;;
15876;SDS011;8037;51.666;7.834;2023-11-19T01:51:39;0.67;;;0.67;;
15876;SDS011;8037;51.666;7.834;2023-11-19T01:54:05;1.00;;;0.87;;
15876;SDS011;8037;51.666;7.834;2023-11-19T01:56:32;1.17;;;1.07;;
15876;SDS011;8037;51.666;7.834;2023-11-19T01:58:59;2.20;;;0.67;;
15876;SDS011;8037;51.666;7.834;2023-11-19T02:01:25;7.60;;;0.83;;
15876;SDS011;8037;51.666;7.834;2023-11-19T02:03:52;0.70;;;0.70;;
15876;SDS011;8037;51.666;7.834;2023-11-19T02:06:18;0.60;;;0.60;;
15876;SDS011;8037;51.666;7.834;2023-11-19T02:08:44;0.70;;;0.70;;
15876;SDS011;8037;51.666;7.834;2023-11-19T02:11:10;1.13;;;0.87;;
15876;SDS011;8037;51.666;7.834;2023-11-19T02:13:37;0.73;;;0.73;;
15876;SDS011;8037;51.666;7.834;2023-11-19T02:16:03;2.40;;;1.07;;
15876;SDS011;8037;51.666;7.834;2023-11-19T02:18:30;0.77;;;0.77;;
15876;SDS011;8037;51.666;7.834;2023-11-19T02:20:56;0.70;;;0.70;;
15876;SDS011;8037;51.666;7.834;2023-11-19T02:23:22;1.33;;;0.50;;
15876;SDS011;8037;51.666;7.834;2023-11-19T02:26:00;0.83;;;0.80;;
15876;SDS011;8037;51.666;7.834;2023-11-19T02:28:27;1.20;;;0.70;;
15876;SDS011;8037;51.666;7.834;2023-11-19T02:30:53;0.77;;;0.77;;
15876;SDS011;8037;51.666;7.834;2023-11-19T02:33:19;0.50;;;0.50;;
15876;SDS011;8037;51.666;7.834;2023-11-19T02:35:45;0.50;;;0.40;;
15876;SDS011;8037;51.666;7.834;2023-11-19T02:38:11;0.80;;;0.73;;
15876;SDS011;8037;51.666;7.834;2023-11-19T02:40:39;0.83;;;0.83;;
15876;SDS011;8037;51.666;7.834;2023-11-19T02:43:05;0.50;;;0.50;;
15876;SDS011;8037;51.666;7.834;2023-11-19T02:45:30;0.73;;;0.67;;
15876;SDS011;8037;51.666;7.834;2023-11-19T02:47:56;0.50;;;0.50;;
15876;SDS011;8037;51.666;7.834;2023-11-19T02:50:22;0.70;;;0.70;;
15876;SDS011;8037;51.666;7.834;2023-11-19T02:52:53;0.70;;;0.53;;
15876;SDS011;8037;51.666;7.834;2023-11-19T02:55:21;0.50;;;0.50;;
15876;SDS011;8037;51.666;7.834;2023-11-19T02:57:48;0.50;;;0.50;;
15876;SDS011;8037;51.666;7.834;2023-11-19T03:00:15;0.63;;;0.63;;
15876;SDS011;8037;51.666;7.834;2023-11-19T03:02:42;0.60;;;0.60;;
15876;SDS011;8037;51.666;7.834;2023-11-19T03:05:11;1.00;;;0.40;;
15876;SDS011;8037;51.666;7.834;2023-11-19T03:07:39;0.70;;;0.60;;
15876;SDS011;8037;51.666;7.834;2023-11-19T03:10:05;0.73;;;0.50;;
15876;SDS011;8037;51.666;7.834;2023-11-19T03:12:31;1.00;;;0.60;;
15876;SDS011;8037;51.666;7.834;2023-11-19T03:14:57;1.10;;;0.50;;
15876;SDS011;8037;51.666;7.834;2023-11-19T03:17:23;3.80;;;0.97;;
15876;SDS011;8037;51.666;7.834;2023-11-19T03:19:50;2.00;;;0.50;;
15876;SDS011;8037;51.666;7.834;2023-11-19T03:22:16;5.00;;;1.60;;
15876;SDS011;8037;51.666;7.834;2023-11-19T03:24:42;0.70;;;0.70;;
15876;SDS011;8037;51.666;7.834;2023-11-19T03:27:08;4.40;;;2.03;;
15876;SDS011;8037;51.666;7.834;2023-11-19T03:29:34;0.90;;;0.67;;
15876;SDS011;8037;51.666;7.834;2023-11-19T03:32:00;0.70;;;0.70;;
15876;SDS011;8037;51.666;7.834;2023-11-19T03:34:25;5.60;;;2.60;;
15876;SDS011;8037;51.666;7.834;2023-11-19T03:36:51;5.17;;;0.90;;
15876;SDS011;8037;51.666;7.834;2023-11-19T03:39:17;2.93;;;0.93;;
15876;SDS011;8037;51.666;7.834;2023-11-19T03:41:45;1.43;;;0.70;;
15876;SDS011;8037;51.666;7.834;2023-11-19T03:44:12;2.73;;;0.80;;
15876;SDS011;8037;51.666;7.834;2023-11-19T03:46:38;2.97;;;0.60;;
15876;SDS011;8037;51.666;7.834;2023-11-19T03:49:03;1.10;;;0.83;;
15876;SDS011;8037;51.666;7.834;2023-11-19T03:51:31;0.77;;;0.77;;
15876;SDS011;8037;51.666;7.834;2023-11-19T03:53:59;1.00;;;0.90;;
15876;SDS011;8037;51.666;7.834;2023-11-19T03:56:25;2.90;;;1.20;;
15876;SDS011;8037;51.666;7.834;2023-11-19T03:58:52;2.00;;;1.20;;
15876;SDS011;8037;51.666;7.834;2023-11-19T04:01:18;1.70;;;0.73;;
15876;SDS011;8037;51.666;7.834;2023-11-19T04:03:44;1.10;;;1.00;;
15876;SDS011;8037;51.666;7.834;2023-11-19T04:06:10;3.70;;;1.10;;
15876;SDS011;8037;51.666;7.834;2023-11-19T04:08:36;2.13;;;1.23;;
15876;SDS011;8037;51.666;7.834;2023-11-19T04:11:04;2.20;;;1.00;;
15876;SDS011;8037;51.666;7.834;2023-11-19T04:13:30;5.37;;;1.03;;
15876;SDS011;8037;51.666;7.834;2023-11-19T04:15:56;3.53;;;1.27;;
15876;SDS011;8037;51.666;7.834;2023-11-19T04:18:22;2.87;;;0.97;;
15876;SDS011;8037;51.666;7.834;2023-11-19T04:20:48;2.00;;;0.70;;
15876;SDS011;8037;51.666;7.834;2023-11-19T04:23:15;1.50;;;0.93;;
15876;SDS011;8037;51.666;7.834;2023-11-19T04:25:41;7.00;;;1.03;;
15876;SDS011;8037;51.666;7.834;2023-11-19T04:28:07;7.03;;;1.03;;
15876;SDS011;8037;51.666;7.834;2023-11-19T04:30:33;1.60;;;1.00;;
15876;SDS011;8037;51.666;7.834;2023-11-19T04:33:00;4.07;;;1.67;;
15876;SDS011;8037;51.666;7.834;2023-11-19T04:35:26;12.80;;;1.93;;
15876;SDS011;8037;51.666;7.834;2023-11-19T04:37:52;1.33;;;0.90;;
15876;SDS011;8037;51.666;7.834;2023-11-19T04:40:18;2.90;;;1.27;;
15876;SDS011;8037;51.666;7.834;2023-11-19T04:42:44;12.20;;;1.57;;
15876;SDS011;8037;51.666;7.834;2023-11-19T04:45:10;6.20;;;1.40;;
15876;SDS011;8037;51.666;7.834;2023-11-19T04:47:36;7.13;;;1.53;;
15876;SDS011;8037;51.666;7.834;2023-11-19T04:50:02;2.00;;;1.20;;
15876;SDS011;8037;51.666;7.834;2023-11-19T04:52:28;4.50;;;1.37;;
15876;SDS011;8037;51.666;7.834;2023-11-19T04:54:54;5.13;;;1.20;;
15876;SDS011;8037;51.666;7.834;2023-11-19T04:57:20;10.47;;;2.03;;
15876;SDS011;8037;51.666;7.834;2023-11-19T04:59:46;4.33;;;1.50;;
15876;SDS011;8037;51.666;7.834;2023-11-19T05:02:12;14.87;;;2.20;;
15876;SDS011;8037;51.666;7.834;2023-11-19T05:04:42;8.00;;;1.23;;
15876;SDS011;8037;51.666;7.834;2023-11-19T05:07:09;5.13;;;1.37;;
15876;SDS011;8037;51.666;7.834;2023-11-19T05:09:35;4.23;;;0.93;;
15876;SDS011;8037;51.666;7.834;2023-11-19T05:12:01;10.97;;;2.07;;
15876;SDS011;8037;51.666;7.834;2023-11-19T05:14:27;2.60;;;1.13;;
15876;SDS011;8037;51.666;7.834;2023-11-19T05:16:53;5.37;;;1.60;;
15876;SDS011;8037;51.666;7.834;2023-11-19T05:19:19;10.27;;;1.67;;
15876;SDS011;8037;51.666;7.834;2023-11-19T05:21:45;4.60;;;1.53;;
15876;SDS011;8037;51.666;7.834;2023-11-19T05:24:11;4.57;;;0.97;;
15876;SDS011;8037;51.666;7.834;2023-11-19T05:26:37;8.37;;;1.77;;
15876;SDS011;8037;51.666;7.834;2023-11-19T05:29:03;2.60;;;1.37;;
15876;SDS011;8037;51.666;7.834;2023-11-19T05:31:29;11.80;;;1.37;;
15876;SDS011;8037;51.666;7.834;2023-11-19T05:33:55;8.43;;;1.70;;
15876;SDS011;8037;51.666;7.834;2023-11-19T05:36:21;6.87;;;1.07;;
15876;SDS011;8037;51.666;7.834;2023-11-19T05:38:47;7.87;;;1.87;;
15876;SDS011;8037;51.666;7.834;2023-11-19T05:41:13;7.37;;;1.80;;
15876;SDS011;8037;51.666;7.834;2023-11-19T05:43:39;3.57;;;1.17;;
15876;SDS011;8037;51.666;7.834;2023-11-19T05:46:06;9.53;;;1.90;;
15876;SDS011;8037;51.666;7.834;2023-11-19T05:48:32;14.33;;;2.43;;
15876;SDS011;8037;51.666;7.834;2023-11-19T05:50:58;13.17;;;1.73;;
15876;SDS011;8037;51.666;7.834;2023-11-19T05:53:23;14.07;;;2.23;;
15876;SDS011;8037;51.666;7.834;2023-11-19T05:55:49;3.73;;;2.10;;
15876;SDS011;8037;51.666;7.834;2023-11-19T05:58:29;13.97;;;2.00;;
15876;SDS011;8037;51.666;7.834;2023-11-19T06:00:55;9.13;;;2.77;;
15876;SDS011;8037;51.666;7.834;2023-11-19T06:03:21;5.00;;;1.63;;
15876;SDS011;8037;51.666;7.834;2023-11-19T06:05:48;6.53;;;1.20;;
15876;SDS011;8037;51.666;7.834;2023-11-19T06:08:14;10.03;;;1.73;;
15876;SDS011;8037;51.666;7.834;2023-11-19T06:10:40;5.13;;;2.23;;
15876;SDS011;8037;51.666;7.834;2023-11-19T06:13:06;8.93;;;1.57;;
15876;SDS011;8037;51.666;7.834;2023-11-19T06:15:35;2.73;;;1.17;;
15876;SDS011;8037;51.666;7.834;2023-11-19T06:18:01;14.67;;;1.50;;
15876;SDS011;8037;51.666;7.834;2023-11-19T06:20:29;9.17;;;1.97;;
15876;SDS011;8037;51.666;7.834;2023-11-19T06:22:56;6.83;;;3.00;;
15876;SDS011;8037;51.666;7.834;2023-11-19T06:25:23;17.47;;;3.30;;
15876;SDS011;8037;51.666;7.834;2023-11-19T06:27:49;12.67;;;2.83;;
15876;SDS011;8037;51.666;7.834;2023-11-19T06:30:15;14.17;;;2.30;;
15876;SDS011;8037;51.666;7.834;2023-11-19T06:32:41;11.00;;;2.13;;
15876;SDS011;8037;51.666;7.834;2023-11-19T06:35:07;5.70;;;2.13;;
15876;SDS011;8037;51.666;7.834;2023-11-19T06:37:34;14.27;;;4.33;;
15876;SDS011;8037;51.666;7.834;2023-11-19T06:40:00;12.50;;;2.47;;
15876;SDS011;8037;51.666;7.834;2023-11-19T06:42:26;11.13;;;2.83;;
15876;SDS011;8037;51.666;7.834;2023-11-19T06:44:52;12.30;;;2.67;;
15876;SDS011;8037;51.666;7.834;2023-11-19T06:47:18;16.40;;;3.30;;
15876;SDS011;8037;51.666;7.834;2023-11-19T06:49:44;11.53;;;2.37;;
15876;SDS011;8037;51.666;7.834;2023-11-19T06:52:10;12.03;;;2.37;;
15876;SDS011;8037;51.666;7.834;2023-11-19T06:54:37;26.33;;;2.83;;
15876;SDS011;8037;51.666;7.834;2023-11-19T06:57:03;37.87;;;3.67;;
15876;SDS011;8037;51.666;7.834;2023-11-19T06:59:30;8.93;;;2.23;;
15876;SDS011;8037;51.666;7.834;2023-11-19T07:01:56;5.37;;;1.30;;
15876;SDS011;8037;51.666;7.834;2023-11-19T07:04:21;15.53;;;2.20;;
15876;SDS011;8037;51.666;7.834;2023-11-19T07:06:47;7.73;;;2.00;;
15876;SDS011;8037;51.666;7.834;2023-11-19T07:09:13;22.53;;;4.93;;
15876;SDS011;8037;51.666;7.834;2023-11-19T07:11:39;10.10;;;2.10;;
15876;SDS011;8037;51.666;7.834;2023-11-19T07:14:09;6.57;;;2.23;;
15876;SDS011;8037;51.666;7.834;2023-11-19T07:16:36;13.47;;;2.13;;
15876;SDS011;8037;51.666;7.834;2023-11-19T07:19:02;16.67;;;3.80;;
15876;SDS011;8037;51.666;7.834;2023-11-19T07:21:28;12.60;;;2.33;;
15876;SDS011;8037;51.666;7.834;2023-11-19T07:23:55;17.57;;;2.03;;
15876;SDS011;8037;51.666;7.834;2023-11-19T07:26:21;10.73;;;2.90;;
15876;SDS011;8037;51.666;7.834;2023-11-19T07:28:47;16.43;;;3.40;;
15876;SDS011;8037;51.666;7.834;2023-11-19T07:31:13;7.13;;;1.60;;
15876;SDS011;8037;51.666;7.834;2023-11-19T07:33:39;6.00;;;1.73;;
15876;SDS011;8037;51.666;7.834;2023-11-19T07:36:07;6.27;;;1.80;;
15876;SDS011;8037;51.666;7.834;2023-11-19T07:38:33;8.43;;;2.77;;
15876;SDS011;8037;51.666;7.834;2023-11-19T07:40:59;11.37;;;2.27;;
15876;SDS011;8037;51.666;7.834;2023-11-19T07:43:26;7.93;;;2.40;;
15876;SDS011;8037;51.666;7.834;2023-11-19T07:45:51;5.43;;;3.00;;
15876;SDS011;8037;51.666;7.834;2023-11-19T07:48:17;17.50;;;2.17;;
15876;SDS011;8037;51.666;7.834;2023-11-19T07:50:48;17.27;;;3.50;;
15876;SDS011;8037;51.666;7.834;2023-11-19T07:53:15;15.23;;;3.27;;
15876;SDS011;8037;51.666;7.834;2023-11-19T07:55:41;10.33;;;3.43;;
15876;SDS011;8037;51.666;7.834;2023-11-19T07:58:08;15.00;;;2.50;;
15876;SDS011;8037;51.666;7.834;2023-11-19T08:00:34;4.73;;;1.90;;
15876;SDS011;8037;51.666;7.834;2023-11-19T08:03:00;5.03;;;2.63;;
15876;SDS011;8037;51.666;7.834;2023-11-19T08:05:26;16.90;;;2.30;;
15876;SDS011;8037;51.666;7.834;2023-11-19T08:07:52;5.50;;;2.20;;
15876;SDS011;8037;51.666;7.834;2023-11-19T08:10:18;12.20;;;3.83;;
15876;SDS011;8037;51.666;7.834;2023-11-19T08:12:44;19.57;;;2.80;;
15876;SDS011;8037;51.666;7.834;2023-11-19T08:15:10;9.40;;;3.90;;
15876;SDS011;8037;51.666;7.834;2023-11-19T08:17:37;16.00;;;2.80;;
15876;SDS011;8037;51.666;7.834;2023-11-19T08:20:03;10.20;;;3.90;;
15876;SDS011;8037;51.666;7.834;2023-11-19T08:22:30;4.50;;;3.03;;
15876;SDS011;8037;51.666;7.834;2023-11-19T08:24:56;12.40;;;2.10;;
15876;SDS011;8037;51.666;7.834;2023-11-19T08:27:21;9.80;;;3.53;;
15876;SDS011;8037;51.666;7.834;2023-11-19T08:29:54;4.63;;;1.87;;
15876;SDS011;8037;51.666;7.834;2023-11-19T08:32:26;13.27;;;2.47;;
15876;SDS011;8037;51.666;7.834;2023-11-19T08:34:52;8.80;;;3.23;;
15876;SDS011;8037;51.666;7.834;2023-11-19T08:37:19;7.67;;;2.03;;
15876;SDS011;8037;51.666;7.834;2023-11-19T08:39:48;8.83;;;2.30;;
15876;SDS011;8037;51.666;7.834;2023-11-19T08:42:15;5.30;;;2.30;;
15876;SDS011;8037;51.666;7.834;2023-11-19T08:44:41;8.00;;;3.07;;
15876;SDS011;8037;51.666;7.834;2023-11-19T08:47:12;12.77;;;3.77;;
15876;SDS011;8037;51.666;7.834;2023-11-19T08:49:39;10.30;;;3.40;;
15876;SDS011;8037;51.666;7.834;2023-11-19T08:52:05;16.40;;;2.27;;
15876;SDS011;8037;51.666;7.834;2023-11-19T08:54:34;8.57;;;3.50;;
15876;SDS011;8037;51.666;7.834;2023-11-19T08:56:59;10.40;;;2.37;;
15876;SDS011;8037;51.666;7.834;2023-11-19T08:59:25;9.10;;;1.70;;
15876;SDS011;8037;51.666;7.834;2023-11-19T09:01:51;15.30;;;3.10;;
15876;SDS011;8037;51.666;7.834;2023-11-19T09:04:17;14.30;;;3.07;;
15876;SDS011;8037;51.666;7.834;2023-11-19T09:06:47;5.40;;;1.63;;
15876;SDS011;8037;51.666;7.834;2023-11-19T09:09:13;5.20;;;2.37;;
15876;SDS011;8037;51.666;7.834;2023-11-19T09:11:39;8.23;;;2.37;;
15876;SDS011;8037;51.666;7.834;2023-11-19T09:14:05;28.00;;;2.60;;
15876;SDS011;8037;51.666;7.834;2023-11-19T09:16:31;11.70;;;2.37;;
15876;SDS011;8037;51.666;7.834;2023-11-19T09:18:57;19.33;;;3.23;;
15876;SDS011;8037;51.666;7.834;2023-11-19T09:21:24;8.97;;;1.87;;
15876;SDS011;8037;51.666;7.834;2023-11-19T09:23:50;12.83;;;2.27;;
15876;SDS011;8037;51.666;7.834;2023-11-19T09:26:16;17.80;;;3.10;;
15876;SDS011;8037;51.666;7.834;2023-11-19T09:28:42;19.93;;;2.30;;
15876;SDS011;8037;51.666;7.834;2023-11-19T09:31:17;4.80;;;2.10;;
15876;SDS011;8037;51.666;7.834;2023-11-19T09:33:43;11.80;;;2.53;;
15876;SDS011;8037;51.666;7.834;2023-11-19T09:36:11;9.30;;;2.77;;
15876;SDS011;8037;51.666;7.834;2023-11-19T09:38:38;10.90;;;2.20;;
15876;SDS011;8037;51.666;7.834;2023-11-19T09:41:05;22.63;;;2.40;;
15876;SDS011;8037;51.666;7.834;2023-11-19T09:43:34;5.37;;;2.23;;
15876;SDS011;8037;51.666;7.834;2023-11-19T09:46:07;9.20;;;2.13;;
15876;SDS011;8037;51.666;7.834;2023-11-19T09:48:37;14.90;;;2.70;;
15876;SDS011;8037;51.666;7.834;2023-11-19T09:51:04;15.10;;;2.60;;
15876;SDS011;8037;51.666;7.834;2023-11-19T09:53:30;3.17;;;1.50;;
15876;SDS011;8037;51.666;7.834;2023-11-19T09:55:56;11.40;;;2.57;;
15876;SDS011;8037;51.666;7.834;2023-11-19T09:58:23;18.73;;;3.27;;
15876;SDS011;8037;51.666;7.834;2023-11-19T10:00:49;16.17;;;3.03;;
15876;SDS011;8037;51.666;7.834;2023-11-19T10:03:17;7.10;;;1.83;;
15876;SDS011;8037;51.666;7.834;2023-11-19T10:05:43;6.70;;;1.80;;
15876;SDS011;8037;51.666;7.834;2023-11-19T10:08:08;13.23;;;2.37;;
15876;SDS011;8037;51.666;7.834;2023-11-19T10:10:36;12.73;;;2.17;;
15876;SDS011;8037;51.666;7.834;2023-11-19T10:13:02;21.07;;;3.07;;
15876;SDS011;8037;51.666;7.834;2023-11-19T10:15:28;13.10;;;2.00;;
15876;SDS011;8037;51.666;7.834;2023-11-19T10:17:57;14.87;;;3.00;;
15876;SDS011;8037;51.666;7.834;2023-11-19T10:20:23;16.23;;;1.63;;
15876;SDS011;8037;51.666;7.834;2023-11-19T10:22:53;15.27;;;3.00;;
15876;SDS011;8037;51.666;7.834;2023-11-19T10:25:26;20.37;;;2.43;;
15876;SDS011;8037;51.666;7.834;2023-11-19T10:27:52;16.43;;;2.50;;
15876;SDS011;8037;51.666;7.834;2023-11-19T10:30:22;5.80;;;1.70;;
15876;SDS011;8037;51.666;7.834;2023-11-19T10:33:10;8.60;;;2.00;;
15876;SDS011;8037;51.666;7.834;2023-11-19T10:35:35;8.37;;;3.13;;
15876;SDS011;8037;51.666;7.834;2023-11-19T10:38:23;21.50;;;3.80;;
15876;SDS011;8037;51.666;7.834;2023-11-19T10:40:48;14.40;;;1.93;;
15876;SDS011;8037;51.666;7.834;2023-11-19T10:43:15;6.67;;;1.90;;
15876;SDS011;8037;51.666;7.834;2023-11-19T10:45:42;10.20;;;2.10;;
15876;SDS011;8037;51.666;7.834;2023-11-19T10:48:08;9.03;;;2.30;;
15876;SDS011;8037;51.666;7.834;2023-11-19T10:50:35;14.57;;;2.17;;
15876;SDS011;8037;51.666;7.834;2023-11-19T10:53:01;7.03;;;1.93;;
15876;SDS011;8037;51.666;7.834;2023-11-19T10:55:28;6.90;;;1.80;;
15876;SDS011;8037;51.666;7.834;2023-11-19T10:58:08;15.67;;;2.07;;
15876;SDS011;8037;51.666;7.834;2023-11-19T11:03:05;10.27;;;2.70;;
15876;SDS011;8037;51.666;7.834;2023-11-19T11:05:35;17.53;;;3.40;;
15876;SDS011;8037;51.666;7.834;2023-11-19T11:08:02;12.93;;;1.97;;
15876;SDS011;8037;51.666;7.834;2023-11-19T11:10:30;11.67;;;3.70;;
15876;SDS011;8037;51.666;7.834;2023-11-19T11:13:00;21.50;;;2.97;;
15876;SDS011;8037;51.666;7.834;2023-11-19T11:15:28;12.87;;;3.03;;
15876;SDS011;8037;51.666;7.834;2023-11-19T11:17:57;8.07;;;1.83;;
15876;SDS011;8037;51.666;7.834;2023-11-19T11:20:26;7.83;;;2.13;;
15876;SDS011;8037;51.666;7.834;2023-11-19T11:23:06;9.23;;;1.97;;
15876;SDS011;8037;51.666;7.834;2023-11-19T11:28:21;12.40;;;2.67;;
15876;SDS011;8037;51.666;7.834;2023-11-19T11:33:52;8.63;;;2.30;;
15876;SDS011;8037;51.666;7.834;2023-11-19T11:36:23;3.10;;;1.53;;
15876;SDS011;8037;51.666;7.834;2023-11-19T11:38:49;13.93;;;2.43;;
15876;SDS011;8037;51.666;7.834;2023-11-19T11:41:22;6.13;;;1.50;;
15876;SDS011;8037;51.666;7.834;2023-11-19T11:43:52;13.83;;;2.73;;
15876;SDS011;8037;51.666;7.834;2023-11-19T11:48:59;18.43;;;3.93;;
15876;SDS011;8037;51.666;7.834;2023-11-19T11:54:10;16.90;;;2.50;;
15876;SDS011;8037;51.666;7.834;2023-11-19T11:56:37;19.23;;;3.20;;
15876;SDS011;8037;51.666;7.834;2023-11-19T11:59:07;25.27;;;2.50;;
15876;SDS011;8037;51.666;7.834;2023-11-19T12:01:33;9.20;;;3.10;;
15876;SDS011;8037;51.666;7.834;2023-11-19T12:03:59;8.33;;;2.43;;
15876;SDS011;8037;51.666;7.834;2023-11-19T12:06:26;13.33;;;1.83;;
15876;SDS011;8037;51.666;7.834;2023-11-19T12:08:52;5.90;;;2.00;;
15876;SDS011;8037;51.666;7.834;2023-11-19T12:11:25;15.00;;;2.60;;
15876;SDS011;8037;51.666;7.834;2023-11-19T12:13:53;15.13;;;3.77;;
15876;SDS011;8037;51.666;7.834;2023-11-19T12:16:21;3.97;;;2.07;;
15876;SDS011;8037;51.666;7.834;2023-11-19T12:18:47;9.10;;;2.93;;
15876;SDS011;8037;51.666;7.834;2023-11-19T12:21:27;16.17;;;4.03;;
15876;SDS011;8037;51.666;7.834;2023-11-19T12:23:54;13.53;;;2.73;;
15876;SDS011;8037;51.666;7.834;2023-11-19T12:26:36;8.10;;;2.17;;
15876;SDS011;8037;51.666;7.834;2023-11-19T12:29:02;20.47;;;3.57;;
15876;SDS011;8037;51.666;7.834;2023-11-19T12:31:32;7.60;;;2.50;;
15876;SDS011;8037;51.666;7.834;2023-11-19T12:34:00;12.67;;;1.80;;
15876;SDS011;8037;51.666;7.834;2023-11-19T12:36:26;8.27;;;2.73;;
15876;SDS011;8037;51.666;7.834;2023-11-19T12:38:52;14.50;;;2.67;;
15876;SDS011;8037;51.666;7.834;2023-11-19T12:41:18;11.10;;;1.73;;
15876;SDS011;8037;51.666;7.834;2023-11-19T12:43:48;7.07;;;1.90;;
15876;SDS011;8037;51.666;7.834;2023-11-19T12:46:23;9.87;;;2.90;;
15876;SDS011;8037;51.666;7.834;2023-11-19T12:48:50;7.43;;;1.87;;
15876;SDS011;8037;51.666;7.834;2023-11-19T12:51:16;5.77;;;2.67;;
15876;SDS011;8037;51.666;7.834;2023-11-19T12:53:49;4.43;;;1.77;;
15876;SDS011;8037;51.666;7.834;2023-11-19T12:56:16;5.13;;;1.83;;
15876;SDS011;8037;51.666;7.834;2023-11-19T12:58:42;10.33;;;2.03;;
15876;SDS011;8037;51.666;7.834;2023-11-19T13:01:08;11.33;;;2.67;;
15876;SDS011;8037;51.666;7.834;2023-11-19T13:03:38;11.50;;;2.87;;
15876;SDS011;8037;51.666;7.834;2023-11-19T13:06:04;10.33;;;2.50;;
15876;SDS011;8037;51.666;7.834;2023-11-19T13:08:36;8.20;;;2.07;;
15876;SDS011;8037;51.666;7.834;2023-11-19T13:11:03;12.73;;;1.97;;
15876;SDS011;8037;51.666;7.834;2023-11-19T13:13:29;12.83;;;2.77;;
15876;SDS011;8037;51.666;7.834;2023-11-19T13:16:04;9.63;;;2.23;;
15876;SDS011;8037;51.666;7.834;2023-11-19T13:18:30;7.60;;;1.60;;
15876;SDS011;8037;51.666;7.834;2023-11-19T13:20:56;17.80;;;2.23;;
15876;SDS011;8037;51.666;7.834;2023-11-19T13:23:22;9.73;;;3.03;;
15876;SDS011;8037;51.666;7.834;2023-11-19T13:25:48;12.33;;;1.87;;
15876;SDS011;8037;51.666;7.834;2023-11-19T13:28:14;11.50;;;2.30;;
15876;SDS011;8037;51.666;7.834;2023-11-19T13:30:40;6.87;;;1.73;;
15876;SDS011;8037;51.666;7.834;2023-11-19T13:33:06;7.93;;;2.03;;
15876;SDS011;8037;51.666;7.834;2023-11-19T13:35:32;6.23;;;1.90;;
15876;SDS011;8037;51.666;7.834;2023-11-19T13:37:59;9.53;;;2.53;;
15876;SDS011;8037;51.666;7.834;2023-11-19T13:40:25;10.03;;;2.47;;
15876;SDS011;8037;51.666;7.834;2023-11-19T13:42:51;14.00;;;2.80;;
15876;SDS011;8037;51.666;7.834;2023-11-19T13:45:17;10.20;;;1.53;;
15876;SDS011;8037;51.666;7.834;2023-11-19T13:47:43;4.97;;;1.43;;
15876;SDS011;8037;51.666;7.834;2023-11-19T13:50:13;5.50;;;1.27;;
15876;SDS011;8037;51.666;7.834;2023-11-19T13:52:41;13.57;;;2.50;;
15876;SDS011;8037;51.666;7.834;2023-11-19T13:55:08;4.67;;;1.33;;
15876;SDS011;8037;51.666;7.834;2023-11-19T13:57:35;7.53;;;1.67;;
15876;SDS011;8037;51.666;7.834;2023-11-19T14:00:02;3.07;;;1.30;;
15876;SDS011;8037;51.666;7.834;2023-11-19T14:02:31;6.40;;;2.00;;
15876;SDS011;8037;51.666;7.834;2023-11-19T14:04:57;9.20;;;1.87;;
15876;SDS011;8037;51.666;7.834;2023-11-19T14:07:23;14.33;;;1.40;;
15876;SDS011;8037;51.666;7.834;2023-11-19T14:09:49;3.27;;;1.17;;
15876;SDS011;8037;51.666;7.834;2023-11-19T14:12:16;9.03;;;1.70;;
15876;SDS011;8037;51.666;7.834;2023-11-19T14:14:42;8.97;;;4.00;;
15876;SDS011;8037;51.666;7.834;2023-11-19T14:17:08;7.20;;;2.87;;
15876;SDS011;8037;51.666;7.834;2023-11-19T14:19:36;19.07;;;10.27;;
15876;SDS011;8037;51.666;7.834;2023-11-19T14:22:03;15.03;;;2.53;;
15876;SDS011;8037;51.666;7.834;2023-11-19T14:24:29;4.07;;;1.87;;
15876;SDS011;8037;51.666;7.834;2023-11-19T14:26:55;6.27;;;1.90;;
15876;SDS011;8037;51.666;7.834;2023-11-19T14:29:23;8.10;;;3.00;;
15876;SDS011;8037;51.666;7.834;2023-11-19T14:31:51;21.27;;;4.67;;
15876;SDS011;8037;51.666;7.834;2023-11-19T14:34:17;11.93;;;4.20;;
15876;SDS011;8037;51.666;7.834;2023-11-19T14:36:44;23.00;;;7.90;;
15876;SDS011;8037;51.666;7.834;2023-11-19T14:39:10;6.97;;;1.87;;
15876;SDS011;8037;51.666;7.834;2023-11-19T14:41:36;11.37;;;3.07;;
15876;SDS011;8037;51.666;7.834;2023-11-19T14:44:02;18.40;;;2.93;;
15876;SDS011;8037;51.666;7.834;2023-11-19T14:46:28;10.03;;;3.13;;
15876;SDS011;8037;51.666;7.834;2023-11-19T14:48:54;9.23;;;2.60;;
15876;SDS011;8037;51.666;7.834;2023-11-19T14:51:20;19.67;;;3.73;;
15876;SDS011;8037;51.666;7.834;2023-11-19T14:53:46;11.33;;;2.67;;
15876;SDS011;8037;51.666;7.834;2023-11-19T14:56:12;4.53;;;1.97;;
15876;SDS011;8037;51.666;7.834;2023-11-19T14:58:39;6.70;;;2.67;;
15876;SDS011;8037;51.666;7.834;2023-11-19T15:01:05;4.83;;;2.07;;
15876;SDS011;8037;51.666;7.834;2023-11-19T15:03:32;7.60;;;3.03;;
15876;SDS011;8037;51.666;7.834;2023-11-19T15:05:58;22.87;;;2.43;;
15876;SDS011;8037;51.666;7.834;2023-11-19T15:08:24;21.63;;;3.93;;